Maxwell, Nebraska
Current Conditions -  °F | °C
As of 12:53 PM on Tuesday 21 Oct 2014 (Local Time) from KLBF Reporting Station
Clear Clear  
Wind Chill: 71°   Ceiling: Unl
Heat Index: 71°   Visibility: 10mi
Dew Point: 54°   Wind: 15mph
Humidity: 55%   Direction: 170°S
Pressure: 29.99"   Gusts: 26mph
Location:  41.08°N, 100.52°W
Report Text: KLBF 211753Z AUTO 17013G23KT 10SM CLR 22/12 A2999 RMK AO2 SLP143 T02170122 10222 20061 58016
Loading
Personal Weather Stations






























Interactive Weather Map
Tropical Storm Tracking
New forecast layout! Learn more

10-Day Weather Forecast

Advertisements
Track Severe Weather on mobile